Flight Track Log - Related Links

Times and Time Zones

All times are in EDT time to prevent confusion due to time zone crossing. See the PDT4147 flight status page for this flight to view local times or setup timezone preferences in your user account.

Time Position Orientation Groundspeed Altitude Reporting Facility
EDT Latitude Longitude Course Direction KTS MPH feet Rate Location/Type
Thu 06:04:00 PM 37.1266 -79.9967 195° South  Level FlightAware Approximate
Thu 06:05:00 PM 37.0654 -80.0226 195° South  Level FlightAware Approximate
Thu 06:06:00 PM 37.0019 -80.0333 180° South  Level FlightAware Approximate
Thu 06:07:00 PM 36.9372 -80.0311 176° South  Level FlightAware Approximate
Thu 06:08:00 PM 36.8726 -80.0261 176° South  Level FlightAware Approximate
Thu 06:09:00 PM 36.8080 -80.0211 176° South  Level FlightAware Approximate
Thu 06:10:00 PM 36.7434 -80.0167 180° South  Level FlightAware Approximate
Thu 06:11:00 PM 36.6787 -80.0143 177° South  Level FlightAware Approximate
Thu 06:12:00 PM 36.6140 -80.0102 177° South  Level FlightAware Approximate
Thu 06:13:00 PM 36.5494 -80.0062 177° South  Level FlightAware Approximate
Thu 06:14:00 PM 36.4847 -80.0022 177° South  Level FlightAware Approximate
Thu 06:15:00 PM 36.4202 -79.9963 174° South  Level FlightAware Approximate
Thu 06:16:00 PM 36.3558 -79.9882 174° South  Level FlightAware Approximate
Thu 06:17:00 PM 36.2913 -79.9818 177° South  Level FlightAware Approximate
Thu 06:18:00 PM 36.2266 -79.9780 177° South  Level FlightAware Approximate
Thu 06:19:00 PM 36.1619 -79.9742 177° South  Level FlightAware Approximate
Thu 06:20:00 PM 36.0973 -79.9704 177° South  Level FlightAware Approximate
Thu 06:21:00 PM 36.0329 -79.9674 230° Southwest  Level FlightAware Approximate
Thu 06:22:00 PM 35.9910 -80.0284 230° Southwest  Level FlightAware Approximate
Thu 06:22:04 PM 35.9878 -80.4075 227° Southwest 262 302 6,700  Level Atlanta Center
Thu 06:22:22 PM 35.9675 -80.4211 209° Southwest 262 302 6,400 -532 Descending Atlanta Center
Thu 06:23:00 PM 35.9491 -80.0894 230° Southwest  Level FlightAware Approximate
Thu 06:23:23 PM 35.8975 -80.4578 203° Southwest 262 302 6,000  Level Atlanta Center
Thu 06:24:00 PM 35.9072 -80.1503 230° Southwest  Level FlightAware Approximate
Thu 06:24:24 PM 35.8319 -80.4964 206° Southwest 257 296 6,000  Level Atlanta Center
Thu 06:25:00 PM 35.8653 -80.2112 230° Southwest  Level FlightAware Approximate
Thu 06:25:26 PM 35.7639 -80.5250 199° South 257 296 6,000  Level Atlanta Center
Thu 06:26:00 PM 35.8211 -80.2695 225° Southwest  Level FlightAware Approximate
Thu 06:26:27 PM 35.6936 -80.5433 192° South 256 295 6,000  Level Atlanta Center
Thu 06:27:00 PM 35.7759 -80.3266 227° Southwest  Level FlightAware Approximate
Thu 06:27:28 PM 35.6272 -80.5564 189° South 249 287 6,000  Level Atlanta Center
Thu 06:28:29 PM 35.5586 -80.5719 190° South 230 265 6,000  Level Atlanta Center
Thu 06:29:30 PM 35.4944 -80.5850 189° South 231 266 6,000  Level Atlanta Center
Thu 06:30:31 PM 35.4394 -80.6331 215° Southwest 239 275 6,000 -197 Level Atlanta Center
Thu 06:31:32 PM 35.3972 -80.6883 227° Southwest 232 267 5,600 -732 Descending Atlanta Center
Thu 06:32:34 PM 35.3550 -80.7514 231° Southwest 219 252 4,500 -1,122 Descending Atlanta Center
Thu 06:33:35 PM 35.3147 -80.8064 228° Southwest 217 250 3,300 -1,180 Descending Atlanta Center

Login

Don't have an account? Register now (free) for customized features, flight alerts, and more!